createdAt,value
2023-02-03T00:02:11.630Z,13.27
2023-02-03T00:07:15.546Z,11.70
2023-02-03T00:12:43.097Z,9.95
2023-02-03T00:17:45.117Z,7.80
2023-02-03T00:22:46.969Z,9.35
2023-02-03T00:27:48.832Z,9.23
2023-02-03T00:32:50.691Z,4.68
2023-02-03T00:37:54.020Z,7.07
2023-02-03T00:42:56.803Z,9.82
2023-02-03T00:47:59.067Z,10.75
2023-02-03T00:53:00.901Z,10.57
2023-02-03T00:58:02.840Z,7.43
2023-02-03T01:03:06.013Z,9.75
2023-02-03T01:08:07.939Z,7.03
2023-02-03T01:13:09.810Z,7.38
2023-02-03T01:18:11.650Z,4.93
2023-02-03T01:23:13.497Z,12.57
2023-02-03T01:28:15.626Z,7.25
2023-02-03T01:33:17.544Z,8.57
2023-02-03T01:38:19.580Z,5.75
2023-02-03T01:43:31.810Z,8.90
2023-02-03T01:48:35.850Z,10.10
2023-02-03T01:53:39.408Z,7.03
2023-02-03T01:58:43.765Z,9.57
2023-02-03T02:03:54.282Z,3.80
2023-02-03T02:08:58.052Z,3.22
2023-02-03T02:14:03.230Z,7.68
2023-02-03T02:19:47.590Z,7.63
2023-02-03T02:25:27.119Z,1.23
2023-02-03T02:31:31.936Z,2.92
2023-02-03T02:37:02.623Z,4.00
2023-02-03T02:42:07.978Z,3.23
2023-02-03T02:47:19.912Z,2.05
2023-02-03T02:52:25.198Z,1.13
2023-02-03T02:57:30.602Z,3.28
2023-02-03T03:02:35.178Z,2.45
2023-02-03T03:07:56.167Z,1.58
2023-02-03T03:13:07.865Z,2.67
2023-02-03T03:18:16.921Z,1.95
2023-02-03T03:23:32.239Z,1.93
2023-02-03T03:29:03.303Z,3.63
2023-02-03T03:34:05.538Z,2.80
2023-02-03T03:39:23.644Z,2.22
2023-02-03T03:44:30.841Z,3.30
2023-02-03T03:49:34.423Z,6.63
2023-02-03T03:54:38.731Z,5.43
2023-02-03T03:59:44.301Z,6.28
2023-02-03T04:04:48.000Z,4.80
2023-02-03T04:09:49.967Z,5.30
2023-02-03T04:14:51.880Z,5.22
2023-02-03T04:19:53.898Z,6.07
2023-02-03T04:24:59.060Z,4.95
2023-02-03T04:30:01.004Z,5.68
2023-02-03T04:35:04.285Z,5.60
2023-02-03T04:40:06.882Z,7.68
2023-02-03T04:45:10.771Z,7.18
2023-02-03T04:50:12.845Z,6.72
2023-02-03T04:55:14.837Z,11.07
2023-02-03T05:00:16.853Z,9.02
2023-02-03T05:05:19.049Z,11.75
2023-02-03T05:10:20.865Z,11.00
2023-02-03T05:15:22.635Z,10.07
2023-02-03T05:20:24.822Z,8.35
2023-02-03T05:25:27.165Z,11.80
2023-02-03T05:30:29.418Z,10.07
2023-02-03T05:35:33.738Z,10.30
2023-02-03T05:40:54.346Z,11.93
2023-02-03T05:46:01.438Z,12.70
2023-02-03T05:51:03.539Z,15.70
2023-02-03T05:56:05.832Z,10.73
2023-02-03T06:01:07.872Z,10.75
2023-02-03T06:06:09.830Z,9.65
2023-02-03T06:11:12.367Z,10.70
2023-02-03T06:16:14.760Z,14.55
2023-02-03T06:21:16.811Z,12.95
2023-02-03T06:26:18.738Z,10.40
2023-02-03T06:31:21.056Z,10.02
2023-02-03T06:36:23.845Z,8.55
2023-02-03T06:41:30.749Z,10.13
2023-02-03T06:46:34.159Z,6.97
2023-02-03T06:51:36.912Z,8.32
2023-02-03T06:56:38.954Z,9.15
2023-02-03T07:01:40.980Z,10.63
2023-02-03T07:06:42.975Z,10.32
2023-02-03T07:11:44.984Z,10.38
2023-02-03T07:16:46.940Z,8.77
2023-02-03T07:21:48.900Z,9.82
2023-02-03T07:26:50.794Z,10.15
2023-02-03T07:31:52.937Z,11.02
2023-02-03T07:36:55.023Z,6.55
2023-02-03T07:41:57.075Z,4.95
2023-02-03T07:46:59.081Z,7.35
2023-02-03T07:52:01.016Z,6.70
2023-02-03T07:57:02.994Z,7.80
2023-02-03T08:02:06.171Z,6.35
2023-02-03T08:07:08.124Z,4.97
2023-02-03T08:12:10.093Z,7.53
2023-02-03T08:17:12.031Z,7.07
2023-02-03T08:22:16.283Z,6.20
2023-02-03T08:27:20.696Z,7.82
2023-02-03T08:32:23.719Z,5.95
2023-02-03T08:37:26.851Z,6.85
2023-02-03T08:42:28.741Z,5.95
2023-02-03T08:47:30.638Z,5.85
2023-02-03T08:52:32.460Z,3.67
2023-02-03T08:57:36.072Z,6.07
2023-02-03T09:02:37.920Z,6.82
2023-02-03T09:07:40.160Z,6.93
2023-02-03T09:12:42.023Z,3.95
2023-02-03T09:17:43.857Z,8.85
2023-02-03T09:22:45.863Z,8.15
2023-02-03T09:27:48.364Z,8.15
2023-02-03T09:32:54.542Z,8.30
2023-02-03T09:37:56.396Z,10.30
2023-02-03T09:43:07.185Z,7.25
2023-02-03T09:48:19.499Z,8.88
2023-02-03T09:53:33.551Z,5.10
2023-02-03T09:58:35.514Z,8.75
2023-02-03T10:03:40.771Z,9.90
2023-02-03T10:09:05.673Z,8.55
2023-02-03T10:14:32.465Z,6.10
2023-02-03T10:20:09.609Z,9.50
2023-02-03T10:25:24.999Z,5.07
2023-02-03T10:30:31.948Z,10.68
2023-02-03T10:35:49.256Z,5.22
2023-02-03T10:40:51.242Z,6.78
2023-02-03T10:45:53.270Z,6.20
2023-02-03T10:50:57.143Z,12.65
2023-02-03T10:56:07.888Z,10.43
2023-02-03T11:01:15.240Z,12.77
2023-02-03T11:06:17.889Z,7.13
2023-02-03T11:11:31.551Z,8.57
2023-02-03T11:16:36.902Z,6.55
2023-02-03T11:21:48.028Z,8.77
2023-02-03T11:26:59.798Z,6.47
2023-02-03T11:32:18.013Z,6.15
2023-02-03T11:37:50.218Z,5.00
2023-02-03T11:42:52.376Z,4.25
2023-02-03T11:48:02.628Z,3.22
2023-02-03T11:53:10.299Z,5.47
2023-02-03T11:58:36.188Z,2.58
2023-02-03T12:03:40.585Z,4.75
2023-02-03T12:08:56.155Z,4.13
2023-02-03T12:14:25.119Z,2.10
2023-02-03T12:19:39.253Z,3.05
2023-02-03T12:25:07.437Z,2.38
2023-02-03T12:30:37.679Z,2.00
2023-02-03T12:35:49.210Z,1.02
2023-02-03T12:40:58.701Z,1.67
2023-02-03T12:46:04.663Z,1.40
2023-02-03T12:51:13.930Z,1.42
2023-02-03T12:56:23.488Z,2.53
2023-02-03T13:01:40.393Z,2.33
2023-02-03T13:07:02.740Z,6.85
2023-02-03T13:12:19.772Z,2.22
2023-02-03T13:17:28.114Z,2.88
2023-02-03T13:22:29.949Z,1.38
2023-02-03T13:27:46.371Z,5.50
2023-02-03T13:33:09.025Z,8.88
2023-02-03T13:38:33.505Z,30.15
2023-02-03T13:43:40.762Z,10.48
2023-02-03T13:48:45.895Z,9.48
2023-02-03T13:53:50.319Z,12.70
2023-02-03T13:59:07.036Z,16.33
2023-02-03T14:04:27.722Z,15.05
2023-02-03T14:09:35.843Z,13.23
2023-02-03T14:14:37.757Z,17.38
2023-02-03T14:19:51.936Z,19.50
2023-02-03T14:24:56.819Z,24.70
2023-02-03T14:30:04.711Z,14.20
2023-02-03T14:35:16.632Z,20.60
2023-02-03T14:40:27.176Z,9.70
2023-02-03T14:45:43.930Z,14.90
2023-02-03T14:51:17.040Z,14.85
2023-02-03T14:57:01.190Z,20.73
2023-02-03T15:02:02.945Z,16.95
2023-02-03T15:07:04.968Z,16.98
2023-02-03T15:12:27.174Z,21.27
2023-02-03T15:17:30.645Z,16.88
2023-02-03T15:22:38.092Z,15.68
2023-02-03T15:27:39.978Z,23.88
2023-02-03T15:32:50.227Z,25.50
2023-02-03T15:37:57.957Z,25.30
2023-02-03T15:42:59.831Z,15.18
2023-02-03T15:48:07.189Z,18.58
2023-02-03T15:53:47.978Z,20.90
2023-02-03T15:58:50.692Z,13.90
2023-02-03T16:03:54.521Z,21.27
2023-02-03T16:08:57.545Z,26.52
2023-02-03T16:14:03.459Z,21.90
2023-02-03T16:19:13.297Z,15.90
2023-02-03T16:24:32.295Z,13.57
2023-02-03T16:29:55.795Z,23.58
2023-02-03T16:35:16.088Z,28.23
2023-02-03T16:40:40.154Z,23.73
2023-02-03T16:46:00.626Z,18.30
2023-02-03T16:56:06.971Z,25.85
2023-02-03T17:01:11.761Z,23.23
2023-02-03T17:06:15.077Z,17.38
2023-02-03T17:11:20.900Z,22.08
2023-02-03T17:16:25.968Z,17.55
2023-02-03T17:21:29.554Z,19.55
2023-02-03T17:26:31.690Z,22.60
2023-02-03T17:31:33.550Z,16.25
2023-02-03T17:36:35.463Z,20.38
2023-02-03T17:57:37.480Z,26.10
2023-02-03T18:02:39.735Z,19.95
2023-02-03T18:07:41.614Z,13.00
2023-02-03T18:12:43.511Z,16.98
2023-02-03T18:17:45.507Z,21.55
2023-02-03T18:22:47.412Z,16.88
2023-02-03T18:27:51.167Z,21.38
2023-02-03T18:32:53.079Z,16.05
2023-02-03T18:37:54.965Z,21.15
2023-02-03T18:42:56.849Z,18.08
2023-02-03T18:47:58.781Z,16.65
2023-02-03T18:53:00.702Z,23.02
2023-02-03T18:58:02.589Z,24.38
2023-02-03T19:03:04.486Z,32.72
2023-02-03T19:08:06.725Z,18.30
2023-02-03T19:13:08.614Z,22.25
2023-02-03T19:18:11.243Z,24.17
2023-02-03T19:23:13.243Z,22.55
2023-02-03T19:28:20.346Z,29.70
2023-02-03T19:33:30.443Z,21.85
2023-02-03T19:38:32.512Z,18.27
2023-02-03T19:43:34.466Z,20.92
2023-02-03T19:48:36.710Z,21.60
2023-02-03T19:53:38.610Z,25.73
2023-02-03T19:58:40.470Z,26.30
2023-02-03T20:03:43.957Z,27.27
2023-02-03T20:08:45.948Z,17.10
2023-02-03T20:13:48.615Z,22.90
2023-02-03T20:18:50.495Z,26.95
2023-02-03T20:23:53.732Z,24.85
2023-02-03T20:28:55.548Z,18.02
2023-02-03T20:33:57.481Z,38.20
2023-02-03T20:38:59.421Z,22.08
2023-02-03T20:44:02.173Z,28.75
2023-02-03T20:49:04.049Z,20.23
2023-02-03T20:54:15.666Z,27.73
2023-02-03T20:59:19.258Z,21.35
2023-02-03T21:04:39.712Z,26.75
2023-02-03T21:14:49.174Z,23.80
2023-02-03T21:19:52.257Z,19.17
2023-02-03T21:24:59.578Z,21.15
2023-02-03T21:30:11.896Z,24.73
2023-02-03T21:35:35.264Z,21.83
2023-02-03T21:40:37.298Z,20.25
2023-02-03T21:45:43.140Z,22.25
2023-02-03T21:50:45.038Z,31.48
2023-02-03T21:55:46.939Z,22.92
2023-02-03T22:00:49.989Z,25.65
2023-02-03T22:05:56.051Z,22.80
2023-02-03T22:10:57.871Z,19.60
2023-02-03T22:15:59.781Z,27.15
2023-02-03T22:21:03.291Z,21.90
2023-02-03T22:26:05.408Z,16.77
2023-02-03T22:31:08.946Z,26.08
2023-02-03T22:36:11.731Z,21.48
2023-02-03T22:41:13.564Z,26.63
2023-02-03T22:46:15.468Z,13.85
2023-02-03T22:51:17.306Z,16.83
2023-02-03T22:56:19.122Z,9.85
2023-02-03T23:01:21.026Z,13.50
2023-02-03T23:06:22.834Z,8.00
2023-02-03T23:11:24.645Z,13.35
2023-02-03T23:16:26.491Z,10.55
2023-02-03T23:21:28.325Z,14.52
2023-02-03T23:26:30.126Z,10.98
2023-02-03T23:31:32.173Z,10.45
2023-02-03T23:36:34.053Z,11.27
2023-02-03T23:41:35.896Z,10.80
2023-02-03T23:46:37.815Z,7.35
2023-02-03T23:51:39.595Z,11.80
2023-02-03T23:56:41.425Z,4.50
